createdAt,value
2023-03-27T00:02:11.576Z,52.10
2023-03-27T00:04:41.115Z,51.98
2023-03-27T00:07:09.254Z,51.91
2023-03-27T00:09:37.252Z,51.73
2023-03-27T00:12:04.951Z,51.79
2023-03-27T00:14:32.842Z,51.59
2023-03-27T00:17:00.373Z,51.78
2023-03-27T00:19:27.783Z,51.59
2023-03-27T00:21:56.183Z,51.54
2023-03-27T00:24:23.603Z,51.53
2023-03-27T00:26:51.204Z,51.60
2023-03-27T00:29:19.141Z,51.37
2023-03-27T00:31:46.317Z,51.27
2023-03-27T00:34:13.670Z,51.39
2023-03-27T00:36:40.825Z,51.29
2023-03-27T00:39:08.208Z,51.32
2023-03-27T00:41:35.542Z,51.20
2023-03-27T00:44:17.764Z,51.25
2023-03-27T00:46:45.589Z,51.18
2023-03-27T00:49:13.940Z,51.22
2023-03-27T00:51:42.589Z,51.05
2023-03-27T00:54:10.812Z,51.28
2023-03-27T00:56:38.756Z,51.10
2023-03-27T00:59:12.659Z,50.94
2023-03-27T01:01:40.543Z,50.99
2023-03-27T01:04:09.071Z,51.35
2023-03-27T01:06:37.637Z,51.07
2023-03-27T01:09:04.914Z,50.98
2023-03-27T01:11:40.520Z,51.07
2023-03-27T01:14:32.559Z,50.93
2023-03-27T01:17:28.485Z,51.02
2023-03-27T01:20:14.251Z,50.67
2023-03-27T01:23:36.207Z,50.86
2023-03-27T01:26:35.552Z,50.83
2023-03-27T01:29:33.003Z,50.66
2023-03-27T01:32:09.247Z,50.92
2023-03-27T01:35:18.127Z,50.83
2023-03-27T01:38:00.376Z,50.81
2023-03-27T01:40:37.072Z,50.89
2023-03-27T01:43:20.699Z,50.76
2023-03-27T01:45:52.600Z,50.87
2023-03-27T01:48:26.717Z,50.98
2023-03-27T01:51:21.048Z,50.89
2023-03-27T01:54:12.138Z,50.99
2023-03-27T01:56:53.424Z,50.95
2023-03-27T01:59:23.465Z,51.13
2023-03-27T02:02:09.188Z,50.90
2023-03-27T02:04:43.313Z,50.77
2023-03-27T02:07:18.666Z,50.92
2023-03-27T02:09:49.318Z,50.92
2023-03-27T02:12:21.381Z,51.01
2023-03-27T02:14:55.420Z,50.92
2023-03-27T02:17:26.207Z,50.81
2023-03-27T02:20:02.494Z,50.85
2023-03-27T02:22:38.201Z,51.16
2023-03-27T02:25:28.753Z,50.88
2023-03-27T02:28:36.786Z,50.67
2023-03-27T02:31:34.150Z,50.65
2023-03-27T02:34:38.468Z,50.75
2023-03-27T02:37:32.267Z,50.74
2023-03-27T02:40:15.886Z,50.88
2023-03-27T02:43:02.375Z,50.88
2023-03-27T02:45:51.898Z,50.78
2023-03-27T02:48:28.981Z,50.56
2023-03-27T02:51:27.438Z,50.74
2023-03-27T02:53:59.272Z,50.86
2023-03-27T02:56:28.425Z,50.87
2023-03-27T02:58:59.879Z,50.71
2023-03-27T03:01:27.510Z,50.69
2023-03-27T03:04:20.310Z,50.82
2023-03-27T03:06:47.502Z,50.68
2023-03-27T03:09:14.896Z,50.72
2023-03-27T03:11:51.378Z,50.91
2023-03-27T03:14:23.092Z,50.76
2023-03-27T03:16:50.366Z,50.65
2023-03-27T03:19:17.637Z,50.85
2023-03-27T03:21:46.828Z,50.86
2023-03-27T03:24:13.995Z,50.78
2023-03-27T03:26:41.500Z,50.66
2023-03-27T03:29:10.434Z,50.80
2023-03-27T03:31:44.700Z,50.69
2023-03-27T03:34:16.658Z,50.66
2023-03-27T03:36:48.903Z,50.91
2023-03-27T03:39:16.847Z,50.89
2023-03-27T03:41:44.044Z,50.83
2023-03-27T03:44:11.258Z,50.89
2023-03-27T03:46:39.070Z,51.00
2023-03-27T03:49:06.761Z,51.02
2023-03-27T03:51:34.364Z,50.96
2023-03-27T03:54:01.939Z,51.05
2023-03-27T03:56:30.879Z,50.98
2023-03-27T03:58:58.128Z,50.97
2023-03-27T04:01:26.103Z,50.81
2023-03-27T04:03:53.417Z,50.76
2023-03-27T04:06:21.329Z,50.88
2023-03-27T04:08:48.716Z,50.93
2023-03-27T04:11:16.148Z,51.07
2023-03-27T04:13:43.332Z,51.13
2023-03-27T04:16:10.804Z,51.07
2023-03-27T04:18:41.097Z,51.18
2023-03-27T04:21:14.428Z,50.87
2023-03-27T04:23:43.397Z,50.81
2023-03-27T04:26:12.250Z,50.85
2023-03-27T04:28:40.218Z,50.90
2023-03-27T04:31:08.585Z,50.96
2023-03-27T04:33:46.166Z,50.68
2023-03-27T04:36:14.771Z,50.79
2023-03-27T04:38:42.036Z,50.64
2023-03-27T04:41:09.257Z,50.67
2023-03-27T04:43:40.056Z,50.48
2023-03-27T04:46:07.981Z,50.60
2023-03-27T04:48:38.180Z,50.50
2023-03-27T04:51:06.671Z,50.36
2023-03-27T04:53:36.162Z,50.26
2023-03-27T04:56:04.194Z,50.33
2023-03-27T04:58:31.360Z,50.39
2023-03-27T05:00:58.896Z,50.21
2023-03-27T05:03:28.253Z,50.01
2023-03-27T05:05:55.617Z,50.03
2023-03-27T05:08:22.858Z,50.22
2023-03-27T05:10:50.738Z,51.08
2023-03-27T05:13:17.978Z,51.34
2023-03-27T05:15:45.158Z,51.04
2023-03-27T05:18:12.556Z,47.72
2023-03-27T05:20:40.040Z,45.11
2023-03-27T05:23:07.343Z,45.76
2023-03-27T05:25:39.391Z,46.54
2023-03-27T05:28:07.453Z,46.25
2023-03-27T05:30:35.061Z,46.11
2023-03-27T05:33:02.358Z,46.29
2023-03-27T05:35:29.711Z,46.75
2023-03-27T05:37:57.501Z,47.33
2023-03-27T05:40:26.588Z,47.41
2023-03-27T05:42:54.572Z,47.52
2023-03-27T05:45:22.914Z,47.77
2023-03-27T05:47:52.708Z,48.11
2023-03-27T05:50:22.059Z,47.98
2023-03-27T05:52:55.880Z,48.37
2023-03-27T05:55:23.301Z,48.68
2023-03-27T05:57:50.511Z,49.18
2023-03-27T06:00:22.903Z,49.05
2023-03-27T06:02:50.354Z,49.86
2023-03-27T06:05:18.219Z,51.11
2023-03-27T06:07:47.574Z,52.44
2023-03-27T06:10:17.798Z,54.10
2023-03-27T06:12:47.062Z,55.25
2023-03-27T06:15:16.297Z,56.46
2023-03-27T06:17:46.666Z,56.89
2023-03-27T06:20:15.461Z,57.96
2023-03-27T06:22:44.779Z,59.04
2023-03-27T06:25:12.020Z,59.67
2023-03-27T06:27:40.991Z,59.84
2023-03-27T06:30:09.422Z,59.62
2023-03-27T06:32:36.907Z,59.40
2023-03-27T06:35:04.490Z,59.39
2023-03-27T06:37:36.825Z,59.53
2023-03-27T06:40:09.401Z,59.52
2023-03-27T06:42:40.437Z,59.35
2023-03-27T06:45:10.331Z,59.19
2023-03-27T06:47:44.414Z,59.22
2023-03-27T06:50:19.902Z,58.75
2023-03-27T06:52:50.974Z,58.87
2023-03-27T06:55:19.608Z,58.57
2023-03-27T06:57:48.737Z,58.52
2023-03-27T07:00:19.957Z,58.06
2023-03-27T07:02:47.714Z,58.14
2023-03-27T07:05:15.605Z,57.26
2023-03-27T07:07:43.532Z,56.49
2023-03-27T07:10:11.520Z,56.34
2023-03-27T07:12:38.919Z,57.29
2023-03-27T07:15:07.863Z,57.20
2023-03-27T07:17:45.913Z,57.45
2023-03-27T07:20:15.665Z,57.54
2023-03-27T07:22:43.135Z,56.94
2023-03-27T07:25:12.143Z,56.41
2023-03-27T07:27:39.394Z,47.70
2023-03-27T07:30:08.135Z,47.00
2023-03-27T07:32:37.975Z,46.48
2023-03-27T07:35:06.408Z,49.27
2023-03-27T07:37:33.724Z,46.81
2023-03-27T07:40:01.281Z,46.93
2023-03-27T07:42:28.775Z,47.12
2023-03-27T07:44:56.025Z,47.81
2023-03-27T07:47:23.317Z,47.93
2023-03-27T07:49:50.564Z,48.36
2023-03-27T07:52:20.258Z,48.28
2023-03-27T07:54:48.753Z,47.80
2023-03-27T07:57:16.077Z,48.11
2023-03-27T07:59:45.239Z,47.93
2023-03-27T08:02:13.722Z,48.15
2023-03-27T08:04:41.062Z,48.04
2023-03-27T08:07:08.547Z,48.14
2023-03-27T08:09:35.692Z,48.61
2023-03-27T08:12:03.571Z,48.49
2023-03-27T08:14:30.969Z,48.73
2023-03-27T08:17:12.445Z,48.55
2023-03-27T08:19:45.411Z,49.14
2023-03-27T08:22:12.951Z,49.22
2023-03-27T08:24:40.289Z,49.30
2023-03-27T08:27:07.495Z,49.45
2023-03-27T08:29:34.635Z,49.38
2023-03-27T08:32:02.178Z,49.55
2023-03-27T08:34:29.422Z,49.19
2023-03-27T08:36:56.613Z,49.45
2023-03-27T08:39:23.921Z,49.35
2023-03-27T08:41:55.125Z,49.26
2023-03-27T08:44:23.504Z,48.50
2023-03-27T08:46:58.174Z,48.24
2023-03-27T08:49:27.851Z,48.19
2023-03-27T08:52:15.667Z,48.22
2023-03-27T08:54:46.180Z,47.22
2023-03-27T08:57:19.940Z,47.55
2023-03-27T08:59:47.622Z,47.53
2023-03-27T09:02:45.454Z,47.54
2023-03-27T09:05:42.754Z,47.40
2023-03-27T09:08:42.660Z,47.12
2023-03-27T09:11:21.607Z,47.24
2023-03-27T09:13:50.449Z,47.23
2023-03-27T09:16:17.591Z,46.71
2023-03-27T09:19:03.648Z,47.11
2023-03-27T09:21:50.221Z,47.27
2023-03-27T09:24:29.460Z,47.13
2023-03-27T09:27:06.655Z,47.03
2023-03-27T09:29:37.941Z,47.04
2023-03-27T09:32:12.118Z,47.15
2023-03-27T09:34:39.348Z,47.19
2023-03-27T09:37:13.327Z,47.07
2023-03-27T09:39:44.222Z,47.10
2023-03-27T09:42:40.224Z,46.75
2023-03-27T09:48:01.297Z,46.93
2023-03-27T09:50:35.894Z,47.21
2023-03-27T09:53:12.110Z,47.78
2023-03-27T09:55:50.521Z,48.08
2023-03-27T09:58:45.870Z,48.05
2023-03-27T10:01:20.614Z,47.86
2023-03-27T10:03:53.078Z,47.40
2023-03-27T10:06:38.871Z,47.30
2023-03-27T10:09:21.371Z,46.50
2023-03-27T10:11:52.830Z,46.24
2023-03-27T10:14:21.966Z,46.77
2023-03-27T10:16:49.356Z,46.57
2023-03-27T10:19:50.601Z,46.56
2023-03-27T10:22:29.781Z,46.88
2023-03-27T10:25:01.056Z,47.38
2023-03-27T10:27:34.054Z,47.50
2023-03-27T10:30:01.206Z,47.58
2023-03-27T10:32:44.402Z,41.84
2023-03-27T10:35:23.981Z,42.02
2023-03-27T10:37:52.728Z,41.78
2023-03-27T10:40:26.935Z,42.97
2023-03-27T10:42:59.721Z,42.81
2023-03-27T10:45:27.143Z,42.96
2023-03-27T10:47:59.050Z,43.64
2023-03-27T10:50:34.229Z,43.81
2023-03-27T10:53:09.630Z,44.26
2023-03-27T10:56:02.070Z,44.21
2023-03-27T10:58:45.382Z,44.24
2023-03-27T11:01:21.273Z,44.43
2023-03-27T11:04:01.869Z,44.86
2023-03-27T11:06:36.196Z,44.96
2023-03-27T11:09:18.510Z,45.42
2023-03-27T11:11:53.561Z,45.66
2023-03-27T11:14:59.380Z,44.64
2023-03-27T11:17:34.470Z,44.86
2023-03-27T11:20:07.331Z,42.71
2023-03-27T11:22:47.172Z,42.60
2023-03-27T11:25:37.687Z,42.30
2023-03-27T11:28:07.834Z,42.23
2023-03-27T11:30:44.212Z,42.71
2023-03-27T11:34:06.263Z,42.97
2023-03-27T11:36:45.380Z,43.74
2023-03-27T11:39:31.985Z,44.09
2023-03-27T11:42:00.637Z,43.59
2023-03-27T11:44:30.315Z,43.42
2023-03-27T11:47:31.081Z,43.14
2023-03-27T11:50:32.636Z,43.10
2023-03-27T11:53:27.227Z,42.74
2023-03-27T11:56:06.896Z,42.65
2023-03-27T11:58:48.648Z,40.96
2023-03-27T12:01:27.432Z,39.83
2023-03-27T12:04:23.227Z,39.89
2023-03-27T12:06:56.233Z,39.29
2023-03-27T12:09:41.529Z,38.36
2023-03-27T12:12:30.252Z,37.84
2023-03-27T12:15:12.040Z,37.45
2023-03-27T12:17:58.425Z,37.02
2023-03-27T12:20:28.791Z,36.85
2023-03-27T12:23:02.758Z,36.62
2023-03-27T12:25:41.992Z,36.52
2023-03-27T12:28:34.381Z,37.59
2023-03-27T12:31:27.299Z,37.76
2023-03-27T12:34:04.860Z,37.50
2023-03-27T12:36:37.403Z,36.96
2023-03-27T12:39:26.020Z,36.68
2023-03-27T12:41:53.258Z,37.53
2023-03-27T12:44:30.956Z,37.50
2023-03-27T12:47:18.068Z,38.13
2023-03-27T12:49:48.584Z,38.51
2023-03-27T12:52:18.675Z,38.91
2023-03-27T12:55:14.291Z,39.33
2023-03-27T12:57:46.034Z,39.71
2023-03-27T13:00:21.430Z,39.12
2023-03-27T13:03:23.328Z,40.15
2023-03-27T13:06:15.335Z,40.31
2023-03-27T13:09:04.109Z,40.46
2023-03-27T13:11:57.978Z,40.86
2023-03-27T13:14:43.431Z,41.11
2023-03-27T13:17:33.708Z,41.40
2023-03-27T13:20:30.445Z,41.54
2023-03-27T13:23:29.084Z,42.02
2023-03-27T13:26:23.674Z,42.15
2023-03-27T13:28:56.521Z,42.65
2023-03-27T13:31:49.739Z,42.56
2023-03-27T13:34:37.100Z,42.83
2023-03-27T13:37:16.349Z,43.25
2023-03-27T13:40:01.477Z,43.15
2023-03-27T13:42:35.647Z,43.55
2023-03-27T13:45:15.548Z,43.79
2023-03-27T13:48:01.774Z,44.04
2023-03-27T13:50:52.209Z,44.32
2023-03-27T13:53:52.842Z,44.49
2023-03-27T13:56:28.985Z,44.21
2023-03-27T13:59:21.071Z,44.51
2023-03-27T14:01:57.642Z,44.49
2023-03-27T14:04:58.233Z,42.32
2023-03-27T14:08:13.095Z,42.86
2023-03-27T14:11:09.710Z,43.01
2023-03-27T14:13:49.783Z,42.54
2023-03-27T14:16:41.726Z,42.50
2023-03-27T14:19:18.058Z,42.54
2023-03-27T14:21:56.311Z,42.54
2023-03-27T14:24:46.807Z,42.51
2023-03-27T14:27:19.529Z,42.45
2023-03-27T14:29:49.514Z,42.57
2023-03-27T14:32:20.417Z,42.64
2023-03-27T14:35:04.029Z,42.76
2023-03-27T14:37:36.252Z,42.51
2023-03-27T14:40:22.506Z,42.73
2023-03-27T14:42:51.173Z,43.16
2023-03-27T14:45:22.818Z,43.43
2023-03-27T14:47:57.258Z,43.66
2023-03-27T14:50:25.754Z,43.92
2023-03-27T14:52:54.417Z,44.13
2023-03-27T14:55:25.720Z,43.99
2023-03-27T14:57:57.507Z,44.46
2023-03-27T15:00:25.730Z,41.30
2023-03-27T15:02:55.035Z,43.57
2023-03-27T15:05:22.984Z,43.07
2023-03-27T15:07:51.638Z,43.37
2023-03-27T15:10:31.605Z,43.26
2023-03-27T15:12:59.012Z,43.21
2023-03-27T15:15:28.810Z,43.45
2023-03-27T15:17:59.722Z,43.11
2023-03-27T15:20:30.215Z,43.47
2023-03-27T15:23:02.098Z,43.60
2023-03-27T15:25:42.866Z,42.84
2023-03-27T15:28:20.849Z,43.12
2023-03-27T15:30:52.270Z,42.54
2023-03-27T15:33:24.534Z,43.19
2023-03-27T15:35:54.327Z,44.13
2023-03-27T15:38:28.767Z,42.64
2023-03-27T15:41:02.370Z,42.44
2023-03-27T15:43:30.825Z,42.64
2023-03-27T15:46:10.425Z,42.99
2023-03-27T15:48:40.787Z,41.02
2023-03-27T15:51:27.700Z,42.43
2023-03-27T15:53:59.005Z,43.87
2023-03-27T15:56:42.314Z,42.30
2023-03-27T15:59:12.880Z,41.95
2023-03-27T16:01:42.695Z,42.38
2023-03-27T16:04:41.151Z,42.82
2023-03-27T16:07:21.652Z,43.20
2023-03-27T16:10:02.464Z,43.29
2023-03-27T16:12:58.200Z,43.68
2023-03-27T16:15:29.913Z,43.39
2023-03-27T16:18:23.418Z,43.54
2023-03-27T16:20:50.623Z,43.89
2023-03-27T16:23:18.002Z,43.89
2023-03-27T16:25:45.292Z,43.75
2023-03-27T16:28:14.567Z,44.16
2023-03-27T16:30:42.210Z,44.23
2023-03-27T16:33:15.770Z,44.24
2023-03-27T16:35:44.149Z,44.86
2023-03-27T16:38:11.888Z,44.94
2023-03-27T16:40:39.375Z,45.24
2023-03-27T16:43:06.982Z,44.90
2023-03-27T16:45:34.349Z,44.22
2023-03-27T16:48:01.665Z,44.66
2023-03-27T16:50:30.678Z,44.53
2023-03-27T16:52:57.853Z,45.00
2023-03-27T16:55:25.536Z,44.95
2023-03-27T16:57:54.071Z,45.08
2023-03-27T17:00:21.518Z,45.13
2023-03-27T17:02:48.733Z,44.82
2023-03-27T17:05:16.076Z,45.08
2023-03-27T17:07:44.815Z,44.55
2023-03-27T17:10:12.220Z,44.71
2023-03-27T17:12:39.399Z,45.02
2023-03-27T17:15:07.284Z,44.78
2023-03-27T17:17:34.548Z,44.88
2023-03-27T17:20:01.978Z,45.03
2023-03-27T17:22:29.902Z,44.95
2023-03-27T17:25:01.014Z,44.19
2023-03-27T17:27:28.245Z,43.87
2023-03-27T17:29:56.242Z,44.40
2023-03-27T17:32:24.846Z,44.41
2023-03-27T17:34:52.314Z,44.56
2023-03-27T17:37:20.808Z,44.93
2023-03-27T17:39:48.436Z,45.00
2023-03-27T17:42:15.901Z,45.04
2023-03-27T17:44:44.904Z,45.07
2023-03-27T17:47:12.434Z,44.98
2023-03-27T17:49:40.782Z,45.10
2023-03-27T17:52:11.143Z,44.94
2023-03-27T17:54:38.572Z,44.86
2023-03-27T17:57:06.232Z,44.49
2023-03-27T17:59:33.879Z,44.48
2023-03-27T18:02:01.377Z,44.46
2023-03-27T18:04:28.936Z,44.65
2023-03-27T18:06:56.365Z,44.43
2023-03-27T18:09:24.139Z,44.36
2023-03-27T18:11:51.595Z,44.60
2023-03-27T18:14:18.795Z,44.45
2023-03-27T18:16:46.133Z,44.38
2023-03-27T18:19:14.498Z,44.43
2023-03-27T18:21:41.738Z,44.63
2023-03-27T18:24:09.419Z,44.73
2023-03-27T18:26:36.775Z,44.61
2023-03-27T18:29:04.989Z,44.31
2023-03-27T18:31:32.233Z,44.54
2023-03-27T18:34:00.046Z,44.30
2023-03-27T18:36:27.431Z,44.25
2023-03-27T18:38:54.880Z,44.22
2023-03-27T18:41:22.378Z,44.31
2023-03-27T18:43:49.644Z,44.35
2023-03-27T18:46:17.274Z,44.44
2023-03-27T18:48:45.677Z,44.58
2023-03-27T18:51:13.220Z,44.18
2023-03-27T18:53:40.580Z,44.33
2023-03-27T18:56:08.152Z,44.40
2023-03-27T18:58:35.951Z,44.45
2023-03-27T19:01:09.058Z,44.37
2023-03-27T19:03:37.056Z,44.32
2023-03-27T19:06:06.030Z,44.31
2023-03-27T19:08:33.507Z,44.70
2023-03-27T19:11:01.145Z,44.37
2023-03-27T19:13:28.554Z,44.43
2023-03-27T19:15:56.167Z,44.58
2023-03-27T19:18:25.574Z,44.21
2023-03-27T19:20:53.116Z,44.18
2023-03-27T19:23:20.806Z,44.44
2023-03-27T19:25:49.062Z,44.24
2023-03-27T19:28:16.492Z,44.45
2023-03-27T19:30:44.269Z,44.65
2023-03-27T19:33:11.767Z,44.83
2023-03-27T19:35:39.069Z,44.75
2023-03-27T19:38:06.933Z,44.62
2023-03-27T19:40:34.136Z,44.68
2023-03-27T19:43:01.310Z,44.57
2023-03-27T19:45:28.620Z,44.34
2023-03-27T19:47:56.182Z,44.49
2023-03-27T19:50:23.459Z,44.72
2023-03-27T19:53:05.210Z,44.72
2023-03-27T19:55:35.413Z,44.74
2023-03-27T19:58:02.602Z,45.14
2023-03-27T20:00:31.520Z,45.15
2023-03-27T20:02:59.614Z,45.04
2023-03-27T20:05:27.615Z,45.06
2023-03-27T20:07:54.911Z,45.61
2023-03-27T20:10:22.566Z,46.14
2023-03-27T20:12:49.980Z,46.65
2023-03-27T20:15:17.229Z,46.05
2023-03-27T20:17:44.481Z,45.67
2023-03-27T20:20:12.241Z,45.42
2023-03-27T20:22:54.326Z,45.59
2023-03-27T20:25:25.387Z,45.47
2023-03-27T20:27:52.754Z,45.68
2023-03-27T20:30:20.009Z,46.21
2023-03-27T20:32:47.223Z,46.34
2023-03-27T20:35:23.514Z,46.47
2023-03-27T20:37:56.378Z,46.20
2023-03-27T20:40:24.307Z,45.44
2023-03-27T20:43:05.662Z,44.74
2023-03-27T20:45:33.083Z,44.34
2023-03-27T20:48:03.412Z,43.88
2023-03-27T20:50:31.507Z,43.56
2023-03-27T20:52:58.806Z,43.63
2023-03-27T20:55:33.581Z,43.14
2023-03-27T20:58:02.089Z,42.65
2023-03-27T21:00:29.274Z,42.17
2023-03-27T21:02:56.703Z,42.17
2023-03-27T21:05:24.035Z,41.86
2023-03-27T21:07:52.495Z,42.18
2023-03-27T21:10:22.947Z,42.09
2023-03-27T21:12:51.179Z,42.10
2023-03-27T21:15:18.634Z,41.74
2023-03-27T21:17:46.154Z,41.89
2023-03-27T21:20:13.574Z,41.77
2023-03-27T21:22:40.774Z,42.03
2023-03-27T21:25:08.162Z,41.93
2023-03-27T21:27:35.423Z,42.03
2023-03-27T21:30:02.846Z,41.96
2023-03-27T21:32:30.370Z,41.94
2023-03-27T21:34:57.682Z,41.92
2023-03-27T21:37:25.211Z,41.78
2023-03-27T21:39:52.592Z,41.66
2023-03-27T21:42:21.801Z,41.69
2023-03-27T21:44:53.636Z,41.77
2023-03-27T21:47:22.380Z,41.68
2023-03-27T21:49:49.858Z,41.55
2023-03-27T21:52:17.300Z,41.52
2023-03-27T21:54:53.163Z,41.48
2023-03-27T21:57:29.696Z,41.60
2023-03-27T21:59:57.209Z,41.80
2023-03-27T22:02:24.689Z,41.88
2023-03-27T22:04:52.090Z,41.98
2023-03-27T22:07:19.286Z,42.08
2023-03-27T22:09:47.125Z,42.21
2023-03-27T22:12:14.389Z,42.57
2023-03-27T22:14:41.602Z,42.56
2023-03-27T22:17:08.989Z,42.67
2023-03-27T22:19:36.161Z,42.95
2023-03-27T22:22:03.644Z,43.42
2023-03-27T22:24:31.098Z,43.50
2023-03-27T22:26:58.591Z,43.90
2023-03-27T22:29:25.989Z,44.12
2023-03-27T22:31:53.496Z,45.12
2023-03-27T22:34:21.213Z,45.38
2023-03-27T22:36:48.395Z,45.39
2023-03-27T22:39:15.628Z,45.57
2023-03-27T22:41:42.922Z,45.56
2023-03-27T22:44:10.508Z,45.98
2023-03-27T22:46:37.858Z,45.94
2023-03-27T22:49:05.087Z,45.87
2023-03-27T22:51:32.408Z,46.25
2023-03-27T22:53:59.799Z,45.91
2023-03-27T22:56:26.985Z,46.16
2023-03-27T22:58:54.205Z,46.18
2023-03-27T23:01:21.405Z,46.30
2023-03-27T23:03:48.690Z,46.20
2023-03-27T23:06:21.209Z,46.18
2023-03-27T23:08:49.741Z,46.44
2023-03-27T23:11:17.180Z,46.38
2023-03-27T23:13:44.697Z,46.34
2023-03-27T23:16:13.076Z,46.41
2023-03-27T23:18:40.315Z,46.44
2023-03-27T23:21:09.777Z,46.46
2023-03-27T23:23:39.041Z,46.35
2023-03-27T23:26:07.219Z,46.51
2023-03-27T23:28:36.609Z,46.43
2023-03-27T23:31:06.731Z,46.51
2023-03-27T23:33:36.491Z,46.44
2023-03-27T23:36:09.241Z,46.51
2023-03-27T23:38:37.289Z,46.45
2023-03-27T23:41:05.751Z,46.38
2023-03-27T23:43:33.375Z,46.28
2023-03-27T23:46:01.145Z,46.39
2023-03-27T23:48:29.621Z,46.38
2023-03-27T23:50:57.451Z,46.63
2023-03-27T23:53:26.180Z,46.61
2023-03-27T23:55:53.936Z,46.38
2023-03-27T23:58:21.181Z,46.44
